sensor_id;sensor_type;location;lat;lon;timestamp;pressure;altitude;pressure_sealevel;temperature
49557;BMP280;35462;45.048;7.666;2023-07-13T00:09:11;98674.97;;;26.45
49557;BMP280;35462;45.048;7.666;2023-07-13T00:24:31;98677.13;;;26.33
49557;BMP280;35462;45.048;7.666;2023-07-13T00:39:51;98668.44;;;26.35
49557;BMP280;35462;45.048;7.666;2023-07-13T00:55:12;98671.53;;;26.26
49557;BMP280;35462;45.048;7.666;2023-07-13T01:10:32;98663.31;;;26.13
49557;BMP280;35462;45.048;7.666;2023-07-13T01:25:58;98663.13;;;26.11
49557;BMP280;35462;45.048;7.666;2023-07-13T01:41:18;98676.69;;;26.11
49557;BMP280;35462;45.048;7.666;2023-07-13T01:56:39;98675.38;;;26.17
49557;BMP280;35462;45.048;7.666;2023-07-13T02:11:59;98673.31;;;26.05
49557;BMP280;35462;45.048;7.666;2023-07-13T02:27:24;98664.56;;;26.12
49557;BMP280;35462;45.048;7.666;2023-07-13T02:42:44;98650.50;;;26.13
49557;BMP280;35462;45.048;7.666;2023-07-13T02:58:04;98670.94;;;25.96
49557;BMP280;35462;45.048;7.666;2023-07-13T03:13:24;98679.44;;;25.87
49557;BMP280;35462;45.048;7.666;2023-07-13T03:28:44;98675.22;;;25.92
49557;BMP280;35462;45.048;7.666;2023-07-13T03:44:09;98685.16;;;26.02
49557;BMP280;35462;45.048;7.666;2023-07-13T03:59:29;98703.38;;;25.89
49557;BMP280;35462;45.048;7.666;2023-07-13T04:14:48;98707.03;;;25.91
49557;BMP280;35462;45.048;7.666;2023-07-13T04:30:08;98713.88;;;25.98
49557;BMP280;35462;45.048;7.666;2023-07-13T04:45:27;98703.56;;;25.72
49557;BMP280;35462;45.048;7.666;2023-07-13T05:00:47;98705.53;;;25.72
49557;BMP280;35462;45.048;7.666;2023-07-13T05:16:06;98714.50;;;25.85
49557;BMP280;35462;45.048;7.666;2023-07-13T05:31:27;98717.22;;;25.85
49557;BMP280;35462;45.048;7.666;2023-07-13T05:46:47;98712.84;;;26.19
49557;BMP280;35462;45.048;7.666;2023-07-13T06:02:09;98715.00;;;26.26
49557;BMP280;35462;45.048;7.666;2023-07-13T06:17:29;98707.00;;;27.27
49557;BMP280;35462;45.048;7.666;2023-07-13T06:32:49;98723.19;;;28.43
49557;BMP280;35462;45.048;7.666;2023-07-13T06:48:08;98726.47;;;30.95
49557;BMP280;35462;45.048;7.666;2023-07-13T07:03:28;98738.69;;;32.82
49557;BMP280;35462;45.048;7.666;2023-07-13T07:18:48;98746.41;;;33.17
49557;BMP280;35462;45.048;7.666;2023-07-13T07:34:07;98757.38;;;34.20
49557;BMP280;35462;45.048;7.666;2023-07-13T07:49:27;98739.22;;;34.89
49557;BMP280;35462;45.048;7.666;2023-07-13T08:04:46;98744.56;;;35.05
49557;BMP280;35462;45.048;7.666;2023-07-13T08:20:06;98754.38;;;34.71
49557;BMP280;35462;45.048;7.666;2023-07-13T08:35:25;98765.25;;;34.69
49557;BMP280;35462;45.048;7.666;2023-07-13T08:50:55;98758.69;;;34.19
49557;BMP280;35462;45.048;7.666;2023-07-13T09:06:16;98768.72;;;32.56
49557;BMP280;35462;45.048;7.666;2023-07-13T09:21:40;98785.91;;;31.93
49557;BMP280;35462;45.048;7.666;2023-07-13T09:37:00;98776.91;;;32.63
49557;BMP280;35462;45.048;7.666;2023-07-13T09:52:20;98780.41;;;32.32
49557;BMP280;35462;45.048;7.666;2023-07-13T10:07:43;98780.28;;;31.84
49557;BMP280;35462;45.048;7.666;2023-07-13T10:23:13;98785.50;;;31.50
49557;BMP280;35462;45.048;7.666;2023-07-13T10:38:34;98782.34;;;31.68
49557;BMP280;35462;45.048;7.666;2023-07-13T10:54:18;98782.88;;;31.67
49557;BMP280;35462;45.048;7.666;2023-07-13T11:09:40;98781.00;;;31.77
49557;BMP280;35462;45.048;7.666;2023-07-13T11:25:02;98760.47;;;32.00
49557;BMP280;35462;45.048;7.666;2023-07-13T11:40:39;98740.25;;;31.88
49557;BMP280;35462;45.048;7.666;2023-07-13T11:56:00;98717.28;;;31.76
49557;BMP280;35462;45.048;7.666;2023-07-13T12:11:20;98719.59;;;31.95
49557;BMP280;35462;45.048;7.666;2023-07-13T12:26:39;98708.41;;;31.61
49557;BMP280;35462;45.048;7.666;2023-07-13T12:58:03;98701.44;;;31.60
49557;BMP280;35462;45.048;7.666;2023-07-13T13:13:24;98702.00;;;31.51
49557;BMP280;35462;45.048;7.666;2023-07-13T13:28:57;98682.50;;;31.47
49557;BMP280;35462;45.048;7.666;2023-07-13T13:44:17;98669.34;;;31.53
49557;BMP280;35462;45.048;7.666;2023-07-13T13:59:38;98670.81;;;31.47
49557;BMP280;35462;45.048;7.666;2023-07-13T14:14:59;98654.06;;;31.35
49557;BMP280;35462;45.048;7.666;2023-07-13T14:30:21;98646.25;;;31.24
49557;BMP280;35462;45.048;7.666;2023-07-13T14:45:45;98635.63;;;31.36
49557;BMP280;35462;45.048;7.666;2023-07-13T15:01:05;98632.94;;;31.28
49557;BMP280;35462;45.048;7.666;2023-07-13T15:16:25;98625.28;;;31.19
49557;BMP280;35462;45.048;7.666;2023-07-13T15:31:45;98633.28;;;31.32
49557;BMP280;35462;45.048;7.666;2023-07-13T15:47:08;98629.59;;;31.37
49557;BMP280;35462;45.048;7.666;2023-07-13T16:02:29;98635.63;;;31.36
49557;BMP280;35462;45.048;7.666;2023-07-13T16:17:48;98645.34;;;31.29
49557;BMP280;35462;45.048;7.666;2023-07-13T16:33:08;98642.66;;;31.14
49557;BMP280;35462;45.048;7.666;2023-07-13T16:48:28;98656.69;;;31.18
49557;BMP280;35462;45.048;7.666;2023-07-13T17:03:49;98663.81;;;31.21
49557;BMP280;35462;45.048;7.666;2023-07-13T17:19:12;98660.38;;;30.98
49557;BMP280;35462;45.048;7.666;2023-07-13T17:34:32;98661.69;;;30.60
49557;BMP280;35462;45.048;7.666;2023-07-13T17:49:53;98675.19;;;30.58
49557;BMP280;35462;45.048;7.666;2023-07-13T18:05:13;98690.34;;;30.52
49557;BMP280;35462;45.048;7.666;2023-07-13T18:20:33;98690.31;;;30.30
49557;BMP280;35462;45.048;7.666;2023-07-13T18:35:53;98710.13;;;30.15
49557;BMP280;35462;45.048;7.666;2023-07-13T18:51:13;98729.09;;;30.28
49557;BMP280;35462;45.048;7.666;2023-07-13T19:06:33;98724.53;;;30.16
49557;BMP280;35462;45.048;7.666;2023-07-13T19:21:54;98728.53;;;30.07
49557;BMP280;35462;45.048;7.666;2023-07-13T19:37:23;98750.13;;;29.91
49557;BMP280;35462;45.048;7.666;2023-07-13T19:52:47;98774.31;;;29.87
49557;BMP280;35462;45.048;7.666;2023-07-13T20:08:20;98800.41;;;29.60
49557;BMP280;35462;45.048;7.666;2023-07-13T20:23:40;98808.41;;;29.58
49557;BMP280;35462;45.048;7.666;2023-07-13T20:39:00;98843.16;;;29.57
49557;BMP280;35462;45.048;7.666;2023-07-13T20:54:20;98853.19;;;29.55
49557;BMP280;35462;45.048;7.666;2023-07-13T21:09:41;98857.38;;;29.56
49557;BMP280;35462;45.048;7.666;2023-07-13T21:25:03;98875.34;;;29.51
49557;BMP280;35462;45.048;7.666;2023-07-13T21:40:25;98885.47;;;29.43
49557;BMP280;35462;45.048;7.666;2023-07-13T21:55:46;98876.28;;;29.34
49557;BMP280;35462;45.048;7.666;2023-07-13T22:11:12;98876.19;;;29.26
49557;BMP280;35462;45.048;7.666;2023-07-13T22:26:33;98882.13;;;29.17
49557;BMP280;35462;45.048;7.666;2023-07-13T22:41:54;98914.69;;;29.15
49557;BMP280;35462;45.048;7.666;2023-07-13T22:57:14;98913.47;;;29.03
49557;BMP280;35462;45.048;7.666;2023-07-13T23:12:33;98923.97;;;28.99
49557;BMP280;35462;45.048;7.666;2023-07-13T23:27:54;98910.16;;;28.72
49557;BMP280;35462;45.048;7.666;2023-07-13T23:43:14;98929.59;;;28.68
49557;BMP280;35462;45.048;7.666;2023-07-13T23:58:33;98936.19;;;28.60
